Thunder radar more information blitzortung!


Radar de pluja more information rain snow radar


Visita la nostra xarxa de llocs de meteo:

Template documentation
and downloads

And another site



No particular awareness of the weather is required.    There are no Weather-warnings

Pagina Historial Weather Underground text

Diari Resum Juliol 25, 2017 Unitats:  Mètric    Imperial   Tant
« Previous Dia
SegĂźent Dia »
Diari Setmana Mensual Anual Personalitzada
  Maxima: Minima: Media:
Temperatura: -17.8 °C -7.7 °C -3.9 °C
Punt de rosada: -17.8 °C -11.7 °C -9.8 °C
Humitat: Humidity % 35 % 53 %
Wind Speed: 0 km/h 0 km/h 12.9 km/h
RĂ fegues de vent: 0 km/h - -
Vent:- - SSW
Pression baro: 0 hPa 34222.3 hPa -
Precipitacions: 0 mm    
Historical Graphs
 
 
Dades de taula per Juliol 25, 2017
Temps Temperatura Punt de rosada Pression baro Vent Wind Speed RĂ fegues de vent Humitat Rainfall Rate (Hourly)
-17.8 °C -17.8 °C 0 hPa Calm     Humidity % 0 mm
00:03 -5.3 °C -8 °C 34327.3 hPa NE 7.6 km/h 7.6 km/h 74 % 0 mm
00:05 -6.5 °C -11.1 °C 34327.3 hPa WSW 7.7 km/h 7.7 km/h 59 % 0 mm
00:08 -5.3 °C -7.9 °C 34361.1 hPa East 6 km/h 6 km/h 75 % 0 mm
00:15 -6.6 °C -11.2 °C 34327.3 hPa WSW 5.1 km/h 7.7 km/h 59 % 0 mm
00:25 -6.7 °C -11.2 °C 34327.3 hPa WNW 2.6 km/h 10.3 km/h 60 % 0 mm
00:35 -6.8 °C -11.3 °C 34327.3 hPa NNW 2.6 km/h 5.1 km/h 60 % 0 mm
00:45 -6.9 °C -11.4 °C 34327.3 hPa NNW 2.6 km/h 2.6 km/h 60 % 0 mm
00:55 -7.1 °C -11.5 °C 34327.3 hPa WSW 5.1 km/h 7.7 km/h 60 % 0 mm
01:05 -7.1 °C -11.6 °C 34327.3 hPa SW 2.6 km/h 7.7 km/h 60 % 0 mm
01:15 -7.2 °C -11.5 °C 34327.3 hPa SW 2.6 km/h 5.1 km/h 61 % 0 mm
01:25 -7.3 °C -11.4 °C 34327.3 hPa WSW 2.6 km/h 5.1 km/h 62 % 0 mm
01:30 -7.3 °C -11.4 °C 34327.3 hPa WSW 5.1 km/h 5.1 km/h 62 % 0 mm
01:40 -7.4 °C -11.4 °C 34293.4 hPa Calm   5.1 km/h 63 % 0 mm
01:50 -7.5 °C -11.5 °C 34293.4 hPa WSW 2.6 km/h 5.1 km/h 63 % 0 mm
02:00 -7.6 °C -11.6 °C 34327.3 hPa Calm   2.6 km/h 63 % 0 mm
02:10 -7.6 °C -11.4 °C 34327.3 hPa SW 2.6 km/h 5.1 km/h 64 % 0 mm
02:20 -7.7 °C -11.5 °C 34327.3 hPa SW 2.6 km/h 2.6 km/h 64 % 0 mm
02:30 -7.5 °C -11.3 °C 34327.3 hPa WSW 2.6 km/h 5.1 km/h 64 % 0 mm
02:40 -7.3 °C -11.2 °C 34327.3 hPa WSW 2.6 km/h 5.1 km/h 64 % 0 mm
02:50 -7.1 °C -11.1 °C 34327.3 hPa WSW 2.6 km/h 5.1 km/h 63 % 0 mm
03:00 -6.8 °C -10.9 °C 34327.3 hPa WSW 2.6 km/h 7.7 km/h 62 % 0 mm
03:10 -6.7 °C -11 °C 34327.3 hPa WSW 2.6 km/h 5.1 km/h 61 % 0 mm
03:20 -6.7 °C -11.1 °C 34327.3 hPa West 5.1 km/h 7.7 km/h 60 % 0 mm
03:30 -6.3 °C -10.9 °C 34327.3 hPa WNW 2.6 km/h 7.7 km/h 59 % 0 mm
03:40 -6 °C -10.6 °C 34327.3 hPa WNW 5.1 km/h 5.1 km/h 59 % 0 mm
03:50 -5.6 °C -10.5 °C 34327.3 hPa NW 2.6 km/h 7.7 km/h 57 % 0 mm
04:00 -5.9 °C -10.7 °C 34327.3 hPa Calm   7.7 km/h 58 % 0 mm
04:10 -5.9 °C -10.8 °C 34327.3 hPa NNW 2.6 km/h 5.1 km/h 57 % 0 mm
04:20 -6.1 °C -10.9 °C 34327.3 hPa WSW 5.1 km/h 7.7 km/h 58 % 0 mm
04:30 -5.8 °C -10.8 °C 34327.3 hPa SW 2.6 km/h 7.7 km/h 57 % 0 mm
04:40 -5.3 °C -10.4 °C 34327.3 hPa SW 5.1 km/h 5.1 km/h 56 % 0 mm
04:50 -5 °C -10.3 °C 34327.3 hPa WSW 5.1 km/h 7.7 km/h 55 % 0 mm
05:00 -4.9 °C -10.4 °C 34327.3 hPa WSW 2.6 km/h 10.3 km/h 54 % 0 mm
05:10 -4.5 °C -10.2 °C 34327.3 hPa WSW 2.6 km/h 10.3 km/h 53 % 0 mm
05:20 -4 °C -9.8 °C 34327.3 hPa SSW 2.6 km/h 10.3 km/h 52 % 0 mm
05:30 -4 °C -10 °C 34327.3 hPa SW 5.1 km/h 10.3 km/h 51 % 0 mm
05:40 -3.9 °C -10.1 °C 34327.3 hPa SW 5.1 km/h 12.9 km/h 50 % 0 mm
10:45 -4 °C -10.2 °C 34327.3 hPa West 6 km/h 6 km/h 50 % 0 mm
10:50 -4.1 °C -10.4 °C 34327.3 hPa WNW 9 km/h 9 km/h 49 % 0 mm
10:51 -4 °C -10.2 °C 34327.3 hPa SW 9 km/h 9 km/h 50 % 0 mm
10:56 -3.7 °C -10.2 °C 34327.3 hPa SW 9 km/h 9 km/h 48 % 0 mm
11:01 -3.9 °C -10.2 °C 34327.3 hPa WNW 9 km/h 9 km/h 49 % 0 mm
11:06 -4.1 °C -10.4 °C 34327.3 hPa West 6 km/h 6 km/h 49 % 0 mm
11:11 -4.1 °C -10.4 °C 34327.3 hPa WSW 11.9 km/h 11.9 km/h 49 % 0 mm
11:16 -3.9 °C -10.5 °C 34327.3 hPa SW 6 km/h 6 km/h 48 % 0 mm
11:21 -3.6 °C -10.4 °C 34327.3 hPa South 8.5 km/h 8.5 km/h 47 % 0 mm
11:26 -3.3 °C -10.1 °C 34327.3 hPa SW 11.9 km/h 11.9 km/h 47 % 0 mm
11:31 -3.2 °C -9.9 °C 34327.3 hPa West 6 km/h 6 km/h 47 % 0 mm
11:36 -2.9 °C -9.7 °C 34327.3 hPa West 16.1 km/h 16.1 km/h 47 % 0 mm
11:41 -2.8 °C -9.9 °C 34327.3 hPa WNW 15 km/h 15 km/h 45 % 0 mm
11:46 -2.7 °C -10.1 °C 34327.3 hPa WSW 11.9 km/h 11.9 km/h 44 % 0 mm
11:51 -2.6 °C -10.2 °C 34327.3 hPa WNW 15 km/h 15 km/h 43 % 0 mm
11:56 -2.6 °C -10.4 °C 34327.3 hPa WNW 15 km/h 15 km/h 42 % 0 mm
12:01 -2.5 °C -10.3 °C 34327.3 hPa SSE 15 km/h 15 km/h 42 % 0 mm
12:06 -2.1 °C -9.9 °C 34293.4 hPa WSW 11.1 km/h 11.1 km/h 42 % 0 mm
12:11 -2 °C -10.1 °C 34293.4 hPa West 15 km/h 15 km/h 41 % 0 mm
12:16 -1.9 °C -10.1 °C 34293.4 hPa North 9 km/h 9.8 km/h 41 % 0 mm
12:21 -1.8 °C -10.3 °C 34293.4 hPa SW 12.7 km/h 12.7 km/h 39 % 0 mm
12:26 -1.8 °C -10.1 °C 34293.4 hPa WSW 11.9 km/h 11.9 km/h 40 % 0 mm
12:31 -2 °C -10.5 °C 34293.4 hPa SW 15 km/h 15 km/h 39 % 0 mm
12:36 -1.8 °C -10.3 °C 34293.4 hPa WSW 15.3 km/h 15.3 km/h 39 % 0 mm
12:41 -1.7 °C -10.7 °C 34293.4 hPa SE 6 km/h 6 km/h 37 % 0 mm
12:46 -1.7 °C -10.4 °C 34293.4 hPa SSW 11.9 km/h 11.9 km/h 38 % 0 mm
12:51 -1.7 °C -10.9 °C 34256.2 hPa SW 20.9 km/h 20.9 km/h 36 % 0 mm
12:56 -1.3 °C -10.3 °C 34256.2 hPa WSW 11.9 km/h 11.9 km/h 37 % 0 mm
13:01 -1.3 °C -10.3 °C 34256.2 hPa SW 14.5 km/h 14.5 km/h 37 % 0 mm
13:06 -1.2 °C -10.5 °C 34256.2 hPa SSW 12.7 km/h 12.7 km/h 36 % 0 mm
13:11 -0.9 °C -10.2 °C 34256.2 hPa SSE 9.8 km/h 9.8 km/h 36 % 0 mm
13:16 -0.9 °C -10.2 °C 34256.2 hPa SSW 9 km/h 9 km/h 36 % 0 mm
13:21 -1.1 °C -10.4 °C 34256.2 hPa South 15 km/h 15 km/h 36 % 0 mm
13:26 -1.1 °C -10.6 °C 34256.2 hPa SSE 15 km/h 15 km/h 35 % 0 mm
13:31 -1.2 °C -10.4 °C 34256.2 hPa South 6 km/h 6 km/h 36 % 0 mm
13:36 -1.1 °C -10.4 °C 34256.2 hPa WSW 17.9 km/h 17.9 km/h 36 % 0 mm
13:41 -1.2 °C -10.5 °C 34256.2 hPa East 9.8 km/h 9.8 km/h 36 % 0 mm
13:46 -0.9 °C -10.2 °C 34256.2 hPa SW 16.1 km/h 16.1 km/h 36 % 0 mm
13:51 -0.9 °C -10.5 °C 34256.2 hPa South 8 km/h 8 km/h 35 % 0 mm
13:57 -1.2 °C -10.2 °C 34256.2 hPa SSW 23.8 km/h 23.8 km/h 37 % 0 mm
13:58 -1.1 °C -10.1 °C 34256.2 hPa WSW 11.9 km/h 11.9 km/h 37 % 0 mm
14:03 -0.8 °C -9.7 °C 34256.2 hPa SW 15 km/h 15 km/h 38 % 0 mm
14:08 -1 °C -9.8 °C 34222.3 hPa SW 11.9 km/h 11.9 km/h 38 % 0 mm
14:13 -0.7 °C -9.6 °C 34222.3 hPa SW 20.9 km/h 20.9 km/h 38 % 0 mm
14:18 -1.1 °C -10.1 °C 34222.3 hPa WSW 26.9 km/h 26.9 km/h 37 % 0 mm
14:23 -1 °C -10.1 °C 34256.2 hPa SW 20.9 km/h 20.9 km/h 37 % 0 mm
14:28 -1.1 °C -10.2 °C 34256.2 hPa WSW 20.9 km/h 20.9 km/h 37 % 0 mm
14:33 -1.3 °C -10.1 °C 34256.2 hPa WSW 29.8 km/h 29.8 km/h 38 % 0 mm
14:38 -1.3 °C -9.9 °C 34256.2 hPa SW 20.3 km/h 20.3 km/h 39 % 0 mm
14:43 -1.3 °C -9.8 °C 34256.2 hPa SW 25.9 km/h 25.9 km/h 39 % 0 mm
14:48 -1.3 °C -9.9 °C 34256.2 hPa SE 26.9 km/h 26.9 km/h 39 % 0 mm
14:53 -1.5 °C -10.1 °C 34256.2 hPa WSW 29 km/h 29 km/h 39 % 0 mm
14:58 -1.5 °C -10.1 °C 34256.2 hPa WSW 33.2 km/h 33.2 km/h 39 % 0 mm
15:03 -1.7 °C -10.1 °C 34256.2 hPa SW 15 km/h 15 km/h 40 % 0 mm
15:08 -1.7 °C -9.9 °C 34256.2 hPa SSW 38.8 km/h 38.8 km/h 40 % 0 mm
15:13 -1.6 °C -9.9 °C 34256.2 hPa WNW 27.7 km/h 27.7 km/h 40 % 0 mm
15:18 -1.8 °C -9.9 °C 34256.2 hPa South 29.8 km/h 29.8 km/h 41 % 0 mm
15:23 -1.8 °C -9.9 °C 34256.2 hPa SW 32.8 km/h 32.8 km/h 41 % 0 mm
15:28 -1.8 °C -9.7 °C 34256.2 hPa South 20.9 km/h 20.9 km/h 42 % 0 mm
15:33 -1.7 °C -9.8 °C 34256.2 hPa WSW 20.9 km/h 20.9 km/h 41 % 0 mm
15:38 -1.8 °C -9.7 °C 34256.2 hPa SW 39.4 km/h 39.4 km/h 42 % 0 mm
15:43 -2.1 °C -9.7 °C 34256.2 hPa SSW 32.8 km/h 32.8 km/h 43 % 0 mm
15:48 -1.8 °C -9.5 °C 34256.2 hPa SSW 15 km/h 15.6 km/h 43 % 0 mm
15:53 -1.8 °C -9.5 °C 34256.2 hPa SW 35.7 km/h 35.7 km/h 43 % 0 mm
15:58 -1.9 °C -9.3 °C 34256.2 hPa WSW 17.9 km/h 17.9 km/h 44 % 0 mm
16:03 -1.8 °C -9.4 °C 34256.2 hPa South 15 km/h 16.1 km/h 43 % 0 mm
16:08 -2 °C -9.7 °C 34256.2 hPa WNW 32.8 km/h 32.8 km/h 43 % 0 mm
16:13 -2.1 °C -9.6 °C 34256.2 hPa South 38.8 km/h 38.8 km/h 44 % 0 mm
16:18 -2.1 °C -9.5 °C 34256.2 hPa SSE 29.8 km/h 29.8 km/h 44 % 0 mm
16:23 -2 °C -9.5 °C 34222.3 hPa WNW 23.8 km/h 23.8 km/h 44 % 0 mm
16:28 -1.7 °C -9.3 °C 34222.3 hPa SSW 23.8 km/h 23.8 km/h 43 % 0 mm
16:29 -1.6 °C -9.3 °C 34222.3 hPa WSW 31.4 km/h 31.4 km/h 43 % 0 mm
16:34 -1.8 °C -9.3 °C 34256.2 hPa SW 28.2 km/h 28.2 km/h 44 % 0 mm
16:39 -1.9 °C -9.4 °C 34256.2 hPa WSW 32.8 km/h 32.8 km/h 44 % 0 mm
16:44 -2 °C -9.5 °C 34256.2 hPa South 23.8 km/h 23.8 km/h 44 % 0 mm
16:49 -1.8 °C -9.1 °C 34256.2 hPa WSW 11.9 km/h 11.9 km/h 45 % 0 mm
16:54 -1.8 °C -9.3 °C 34256.2 hPa WSW 22 km/h 22 km/h 44 % 0 mm
16:59 -1.7 °C -9 °C 34256.2 hPa SW 11.9 km/h 11.9 km/h 45 % 0 mm
17:04 -1.7 °C -9.2 °C 34256.2 hPa SSW 17.9 km/h 19.2 km/h 44 % 0 mm
17:09 -2 °C -9.5 °C 34256.2 hPa SW 23.8 km/h 23.8 km/h 44 % 0 mm
17:14 -1.9 °C -9.4 °C 34256.2 hPa WSW 32.8 km/h 32.8 km/h 44 % 0 mm
17:19 -2 °C -9.3 °C 34256.2 hPa SSW 20.9 km/h 20.9 km/h 45 % 0 mm
17:24 -2.1 °C -9.3 °C 34256.2 hPa WSW 17.9 km/h 17.9 km/h 45 % 0 mm
17:25 -2.1 °C -9.3 °C 34256.2 hPa WSW 17.9 km/h 17.9 km/h 45 % 0 mm
17:30 -2.1 °C -9.3 °C 34256.2 hPa South 20.9 km/h 20.9 km/h 45 % 0 mm
17:35 -2 °C -9.3 °C 34256.2 hPa SSW 26.9 km/h 26.9 km/h 45 % 0 mm
17:40 -1.9 °C -9.2 °C 34256.2 hPa SW 20.9 km/h 20.9 km/h 45 % 0 mm
17:45 -2.1 °C -9.3 °C 34256.2 hPa SE 20.9 km/h 20.9 km/h 45 % 0 mm
17:50 -2.2 °C -9.4 °C 34256.2 hPa SW 23.8 km/h 23.8 km/h 45 % 0 mm
17:55 -2.2 °C -9.5 °C 34256.2 hPa South 11.9 km/h 11.9 km/h 45 % 0 mm
18:00 -2.6 °C -9.6 °C 34256.2 hPa West 32.8 km/h 32.8 km/h 46 % 0 mm
18:05 -2.7 °C -9.7 °C 34256.2 hPa WSW 32.8 km/h 32.8 km/h 46 % 0 mm
18:10 -2.7 °C -9.7 °C 34256.2 hPa South 25.4 km/h 25.4 km/h 46 % 0 mm
18:15 -2.6 °C -9.4 °C 34256.2 hPa WSW 23.8 km/h 23.8 km/h 47 % 0 mm
18:20 -2.7 °C -9.6 °C 34222.3 hPa SSE 23.8 km/h 23.8 km/h 47 % 0 mm
18:25 -2.7 °C -9.6 °C 34222.3 hPa SW 25.1 km/h 25.1 km/h 47 % 0 mm
18:30 -2.7 °C -9.6 °C 34222.3 hPa South 28.2 km/h 28.2 km/h 47 % 0 mm
18:35 -2.8 °C -9.4 °C 34222.3 hPa WSW 20.9 km/h 20.9 km/h 48 % 0 mm
18:40 -2.8 °C -9.4 °C 34222.3 hPa SSW 35.7 km/h 35.7 km/h 48 % 0 mm
18:45 -2.7 °C -9.3 °C 34222.3 hPa South 20.9 km/h 20.9 km/h 48 % 0 mm
18:50 -2.8 °C -9.4 °C 34256.2 hPa WSW 20.9 km/h 20.9 km/h 48 % 0 mm
18:55 -2.9 °C -9.2 °C 34256.2 hPa WSW 23.8 km/h 23.8 km/h 50 % 0 mm
18:56 -2.9 °C -9.2 °C 34256.2 hPa South 23.8 km/h 23.8 km/h 50 % 0 mm
19:01 -2.8 °C -9.2 °C 34256.2 hPa South 15 km/h 15 km/h 49 % 0 mm
19:06 -2.9 °C -9.2 °C 34222.3 hPa SW 19.2 km/h 19.2 km/h 50 % 0 mm
19:11 -2.9 °C -9.2 °C 34222.3 hPa SSW 17.9 km/h 17.9 km/h 50 % 0 mm
19:16 -2.9 °C -9 °C 34222.3 hPa SW 20.9 km/h 20.9 km/h 51 % 0 mm
19:17 -2.9 °C -9.1 °C 34222.3 hPa South 17.9 km/h 17.9 km/h 51 % 0 mm
19:22 -3.1 °C -9.1 °C 34222.3 hPa SSW 15 km/h 15 km/h 51 % 0 mm
19:27 -3.1 °C -9.1 °C 34222.3 hPa ENE 15.3 km/h 15.3 km/h 51 % 0 mm
19:32 -3.2 °C -9.1 °C 34222.3 hPa South 20.9 km/h 20.9 km/h 52 % 0 mm
19:37 -3.2 °C -9.1 °C 34222.3 hPa SSW 17.9 km/h 17.9 km/h 52 % 0 mm
19:42 -3.2 °C -9.1 °C 34222.3 hPa SW 15 km/h 15 km/h 52 % 0 mm
19:47 -3.4 °C -9.3 °C 34222.3 hPa SW 17.9 km/h 17.9 km/h 52 % 0 mm
19:52 -3.5 °C -9.4 °C 34222.3 hPa SW 11.9 km/h 11.9 km/h 52 % 0 mm
19:57 -3.7 °C -9.4 °C 34222.3 hPa SSW 17.9 km/h 17.9 km/h 53 % 0 mm
20:02 -3.8 °C -9.5 °C 34222.3 hPa South 17.9 km/h 17.9 km/h 53 % 0 mm
20:07 -3.8 °C -9.3 °C 34222.3 hPa SSE 9 km/h 9 km/h 54 % 0 mm
20:12 -3.8 °C -9.3 °C 34222.3 hPa SW 9 km/h 9 km/h 54 % 0 mm
20:15 -5.8 °C -8.7 °C 34256.2 hPa NE 5.1 km/h 5.1 km/h 73 % 0 mm
20:17 -3.9 °C -9.4 °C 34222.3 hPa SW 15 km/h 15 km/h 54 % 0 mm
20:22 -4 °C -9.2 °C 34256.2 hPa South 9 km/h 9 km/h 56 % 0 mm
20:24 -4 °C -9.2 °C 34256.2 hPa SW 11.9 km/h 11.9 km/h 56 % 0 mm
20:25 -5.9 °C -8.7 °C 34256.2 hPa NE 5.1 km/h 5.1 km/h 73 % 0 mm
20:29 -4.1 °C -9.3 °C 34256.2 hPa SW 9 km/h 9 km/h 56 % 0 mm
20:34 -4.1 °C -9.3 °C 34256.2 hPa SE 6 km/h 6.3 km/h 56 % 0 mm
20:35 -5.9 °C -8.6 °C 34256.2 hPa NE 2.6 km/h 5.1 km/h 74 % 0 mm
20:39 -4.1 °C -9 °C 34256.2 hPa ESE 17.9 km/h 17.9 km/h 58 % 0 mm
20:44 -4.3 °C -9.2 °C 34256.2 hPa South 15 km/h 15 km/h 58 % 0 mm
20:45 -5.9 °C -8.6 °C 34256.2 hPa ENE 2.6 km/h 7.7 km/h 74 % 0 mm
20:49 -4.3 °C -9.1 °C 34256.2 hPa SSW 9 km/h 9 km/h 59 % 0 mm
20:54 -4.4 °C -9.2 °C 34256.2 hPa SE 20.9 km/h 20.9 km/h 59 % 0 mm
20:55 -5.9 °C -8.6 °C 34256.2 hPa ENE 2.6 km/h 7.7 km/h 74 % 0 mm
20:59 -4.4 °C -9 °C 34256.2 hPa SSE 11.9 km/h 11.9 km/h 60 % 0 mm
21:04 -4.5 °C -8.9 °C 34256.2 hPa South 9 km/h 9 km/h 61 % 0 mm
21:05 -6 °C -8.6 °C 34256.2 hPa ENE 2.6 km/h 7.7 km/h 75 % 0 mm
21:09 -4.6 °C -8.8 °C 34256.2 hPa East 16.6 km/h 16.6 km/h 62 % 0 mm
21:14 -4.7 °C -8.8 °C 34256.2 hPa ESE 15 km/h 15 km/h 63 % 0 mm
21:15 -6 °C -8.6 °C 34256.2 hPa East 2.6 km/h 5.1 km/h 75 % 0 mm
21:19 -4.7 °C -8.7 °C 34293.4 hPa South 11.9 km/h 11.9 km/h 64 % 0 mm
21:24 -4.8 °C -8.8 °C 34293.4 hPa ESE 15 km/h 15 km/h 64 % 0 mm
21:25 -6 °C -8.6 °C 34256.2 hPa Calm   5.1 km/h 75 % 0 mm
21:29 -4.8 °C -8.8 °C 34293.4 hPa ESE 17.9 km/h 17.9 km/h 64 % 0 mm
21:34 -4.8 °C -8.7 °C 34222.3 hPa SE 15 km/h 15 km/h 65 % 0 mm
21:35 -6.1 °C -8.7 °C 34256.2 hPa ESE 2.6 km/h   74 % 0 mm
21:39 -4.9 °C -8.7 °C 34222.3 hPa SSE 11.9 km/h 11.9 km/h 65 % 0 mm
21:44 -4.9 °C -8.7 °C 34222.3 hPa SE 5.1 km/h 5.1 km/h 65 % 0 mm
21:45 -6.1 °C -8.7 °C 34256.2 hPa Calm     74 % 0 mm
21:49 -4.9 °C -8.6 °C 34256.2 hPa SSE 6.8 km/h 6.8 km/h 66 % 0 mm
21:54 -4.9 °C -8.7 °C 34256.2 hPa SE 6.3 km/h 6.3 km/h 65 % 0 mm
21:55 -6.1 °C -8.7 °C 34256.2 hPa SW 2.6 km/h 5.1 km/h 74 % 0 mm
21:59 -4.9 °C -8.7 °C 34256.2 hPa ESE 12.2 km/h 12.2 km/h 66 % 0 mm
22:04 -5 °C -8.7 °C 34256.2 hPa SSE 9 km/h 9 km/h 66 % 0 mm
22:05 -6.1 °C -8.6 °C 34256.2 hPa SW 5.1 km/h 5.1 km/h 75 % 0 mm
22:09 -5 °C -8.7 °C 34256.2 hPa ESE 9 km/h 9 km/h 66 % 0 mm
22:14 -5.1 °C -8.7 °C 34256.2 hPa ENE 9 km/h 9 km/h 67 % 0 mm
22:15 -6.1 °C -9.3 °C 34256.2 hPa WSW 5.1 km/h 10.3 km/h 70 % 0 mm
22:19 -5.1 °C -8.6 °C 34256.2 hPa East 9 km/h 9 km/h 68 % 0 mm
22:24 -5.2 °C -8.6 °C 34256.2 hPa ENE 6 km/h 6 km/h 68 % 0 mm
22:25 -6.1 °C -10.1 °C 34222.3 hPa WSW 7.7 km/h 10.3 km/h 64 % 0 mm
22:29 -5.1 °C -8.6 °C 34256.2 hPa ESE 9 km/h 9 km/h 68 % 0 mm
22:34 -5.1 °C -8.7 °C 34256.2 hPa ESE 5.1 km/h 5.1 km/h 67 % 0 mm
22:35 -6.2 °C -10.5 °C 34256.2 hPa WSW 5.1 km/h 12.9 km/h 61 % 0 mm
22:39 -5.1 °C -8.7 °C 34256.2 hPa East 7.6 km/h 7.6 km/h 67 % 0 mm
22:44 -5.1 °C -8.6 °C 34256.2 hPa NE 9 km/h 9 km/h 68 % 0 mm
22:45 -6.2 °C -10.8 °C 34256.2 hPa WSW 5.1 km/h 7.7 km/h 59 % 0 mm
22:49 -5.2 °C -8.6 °C 34256.2 hPa East 3.1 km/h 3.1 km/h 68 % 0 mm
22:54 -5.1 °C -8.6 °C 34256.2 hPa ENE 9 km/h 9 km/h 68 % 0 mm
22:55 -6.2 °C -10.8 °C 34256.2 hPa West 5.1 km/h 7.7 km/h 59 % 0 mm
22:59 -5.2 °C -8.6 °C 34256.2 hPa ENE 6.3 km/h 6.3 km/h 68 % 0 mm
23:04 -5.2 °C -8.6 °C 34256.2 hPa ENE 8.5 km/h 8.5 km/h 68 % 0 mm
23:05 -6.3 °C -11.2 °C 34222.3 hPa WNW 2.6 km/h 7.7 km/h 57 % 0 mm
23:09 -5.2 °C -8.6 °C 34256.2 hPa NNE 9 km/h 9 km/h 69 % 0 mm
23:14 -5.2 °C -8.6 °C 34256.2 hPa ESE 6 km/h 6 km/h 69 % 0 mm
23:15 -6.3 °C -11.2 °C 34222.3 hPa NW 2.6 km/h 5.1 km/h 57 % 0 mm
23:19 -5.3 °C -8.6 °C 34256.2 hPa ENE 9 km/h 9 km/h 69 % 0 mm
23:24 -5.3 °C -8.6 °C 34256.2 hPa East 6.8 km/h 6.8 km/h 69 % 0 mm
23:25 -6.4 °C -11.5 °C 34256.2 hPa WNW 2.6 km/h 7.7 km/h 56 % 0 mm
23:29 -5.3 °C -8.4 °C 34256.2 hPa NE 6 km/h 6 km/h 70 % 0 mm
23:34 -5.3 °C -8.5 °C 34256.2 hPa East 4.2 km/h 4.2 km/h 70 % 0 mm
23:35 -6.6 °C -11.6 °C 34256.2 hPa WNW 2.6 km/h 7.7 km/h 56 % 0 mm
23:39 -5.3 °C -8.5 °C 34256.2 hPa ENE 7.6 km/h 7.6 km/h 70 % 0 mm
23:44 -5.3 °C -8.5 °C 34256.2 hPa ENE 6 km/h 6 km/h 70 % 0 mm
23:45 -6.7 °C -11.6 °C 34256.2 hPa North 5.1 km/h 5.1 km/h 57 % 0 mm
23:49 -5.4 °C -8.6 °C 34256.2 hPa ENE 6 km/h 6 km/h 70 % 0 mm
23:54 -5.4 °C -8.6 °C 34256.2 hPa NNE 9 km/h 9 km/h 70 % 0 mm
23:55 -6.8 °C -11.7 °C 34256.2 hPa NE 2.6 km/h 10.3 km/h 57 % 0 mm
23:59 -5.4 °C -8.6 °C 34256.2 hPa ENE 6 km/h 6 km/h 70 % 0 mm
Meteo Sesrovires
Elogis d' Weather Underground - 1.5 mb

Guio original per  Jim McMurry - jmcmurry@mwt.net Adaptat per a la plantilla per  Wim van der Kuil - Leuven-Template.eu

Trobareu la nostra informacio del temps tambe a:

Weather Underground

AWEKAS